createdAt,value
2023-05-07T00:00:12.727Z,15.90
2023-05-07T00:02:40.269Z,15.90
2023-05-07T00:05:08.441Z,15.80
2023-05-07T00:07:36.054Z,15.80
2023-05-07T00:10:04.625Z,15.80
2023-05-07T00:12:34.837Z,15.70
2023-05-07T00:15:04.375Z,15.50
2023-05-07T00:17:31.916Z,15.50
2023-05-07T00:19:59.186Z,15.40
2023-05-07T00:22:26.555Z,15.40
2023-05-07T00:24:53.992Z,15.40
2023-05-07T00:27:21.282Z,15.40
2023-05-07T00:29:48.841Z,15.40
2023-05-07T00:32:16.275Z,15.30
2023-05-07T00:34:44.756Z,15.40
2023-05-07T00:37:12.967Z,15.30
2023-05-07T00:39:40.590Z,15.20
2023-05-07T00:42:09.058Z,15.10
2023-05-07T00:44:36.509Z,15.00
2023-05-07T00:47:05.713Z,15.00
2023-05-07T00:49:40.477Z,14.90
2023-05-07T00:52:09.985Z,14.90
2023-05-07T00:54:37.598Z,14.90
2023-05-07T00:57:05.251Z,14.90
2023-05-07T00:59:34.009Z,14.90
2023-05-07T01:02:01.593Z,14.90
2023-05-07T01:04:29.013Z,14.90
2023-05-07T01:06:59.082Z,14.90
2023-05-07T01:09:28.596Z,14.90
2023-05-07T01:11:58.450Z,14.80
2023-05-07T01:14:26.819Z,14.90
2023-05-07T01:16:54.931Z,14.90
2023-05-07T01:19:24.603Z,14.90
2023-05-07T01:21:53.358Z,14.80
2023-05-07T01:24:23.334Z,14.70
2023-05-07T01:26:50.968Z,14.70
2023-05-07T01:29:19.113Z,14.60
2023-05-07T01:31:48.766Z,14.60
2023-05-07T01:34:18.344Z,14.60
2023-05-07T01:36:46.918Z,14.50
2023-05-07T01:39:14.785Z,14.50
2023-05-07T01:41:44.097Z,14.50
2023-05-07T01:44:13.583Z,14.50
2023-05-07T01:46:41.531Z,14.60
2023-05-07T01:49:09.362Z,14.60
2023-05-07T01:51:37.208Z,14.60
2023-05-07T01:54:04.565Z,14.60
2023-05-07T01:56:32.329Z,14.60
2023-05-07T01:59:00.061Z,14.60
2023-05-07T02:01:28.850Z,14.50
2023-05-07T02:03:56.645Z,14.40
2023-05-07T02:06:27.006Z,14.30
2023-05-07T02:08:58.718Z,14.20
2023-05-07T02:11:26.370Z,14.20
2023-05-07T02:13:54.045Z,14.20
2023-05-07T02:16:22.340Z,14.20
2023-05-07T02:18:49.677Z,14.10
2023-05-07T02:21:17.249Z,14.10
2023-05-07T02:23:44.665Z,14.10
2023-05-07T02:26:12.508Z,14.10
2023-05-07T02:28:39.954Z,14.00
2023-05-07T02:31:07.603Z,14.00
2023-05-07T02:33:36.399Z,14.00
2023-05-07T02:36:12.976Z,13.90
2023-05-07T02:38:53.018Z,13.90
2023-05-07T02:41:21.691Z,13.90
2023-05-07T02:43:49.027Z,13.90
2023-05-07T02:46:18.372Z,13.90
2023-05-07T02:48:50.219Z,13.80
2023-05-07T02:51:23.998Z,13.80
2023-05-07T02:53:53.124Z,13.70
2023-05-07T02:56:22.128Z,13.70
2023-05-07T02:58:49.487Z,13.70
2023-05-07T03:01:18.457Z,13.60
2023-05-07T03:03:52.526Z,13.60
2023-05-07T03:06:20.080Z,13.70
2023-05-07T03:08:47.361Z,13.70
2023-05-07T03:11:14.745Z,13.60
2023-05-07T03:13:42.066Z,13.60
2023-05-07T03:16:09.440Z,13.60
2023-05-07T03:18:36.808Z,13.60
2023-05-07T03:21:04.219Z,13.60
2023-05-07T03:23:31.554Z,13.60
2023-05-07T03:25:58.864Z,13.60
2023-05-07T03:28:26.913Z,13.60
2023-05-07T03:30:59.860Z,13.60
2023-05-07T03:33:28.622Z,13.70
2023-05-07T03:35:56.905Z,13.70
2023-05-07T03:38:26.285Z,13.80
2023-05-07T03:40:53.577Z,13.80
2023-05-07T03:43:21.231Z,13.90
2023-05-07T03:45:53.552Z,13.90
2023-05-07T03:48:25.764Z,13.90
2023-05-07T03:50:55.414Z,13.90
2023-05-07T03:53:22.729Z,14.00
2023-05-07T03:55:50.704Z,14.10
2023-05-07T03:58:18.682Z,14.20
2023-05-07T04:00:46.610Z,14.30
2023-05-07T04:03:21.741Z,14.40
2023-05-07T04:05:49.431Z,14.40
2023-05-07T04:08:16.723Z,14.50
2023-05-07T04:10:48.347Z,14.60
2023-05-07T04:13:15.844Z,14.70
2023-05-07T04:15:43.991Z,14.80
2023-05-07T04:18:14.519Z,14.90
2023-05-07T04:20:45.206Z,15.00
2023-05-07T04:23:14.889Z,15.20
2023-05-07T04:25:42.603Z,15.40
2023-05-07T04:28:21.858Z,15.50
2023-05-07T04:30:51.085Z,15.80
2023-05-07T04:33:18.755Z,16.00
2023-05-07T04:35:47.510Z,16.10
2023-05-07T04:38:15.792Z,16.30
2023-05-07T04:40:43.849Z,16.40
2023-05-07T04:43:15.179Z,16.50
2023-05-07T04:45:47.852Z,16.60
2023-05-07T04:48:17.099Z,16.80
2023-05-07T04:50:44.532Z,16.80
2023-05-07T04:53:14.585Z,16.80
2023-05-07T04:55:42.154Z,16.80
2023-05-07T04:58:10.253Z,16.80
2023-05-07T05:00:40.338Z,16.90
2023-05-07T05:03:08.958Z,17.00
2023-05-07T05:05:39.022Z,17.10
2023-05-07T05:08:06.789Z,17.30
2023-05-07T05:10:37.240Z,17.40
2023-05-07T05:13:04.671Z,17.70
2023-05-07T05:15:34.072Z,17.80
2023-05-07T05:18:02.605Z,17.90
2023-05-07T05:20:30.318Z,18.00
2023-05-07T05:22:57.750Z,18.10
2023-05-07T05:25:25.235Z,18.30
2023-05-07T05:27:52.985Z,18.50
2023-05-07T05:30:21.316Z,18.70
2023-05-07T05:32:49.821Z,18.70
2023-05-07T05:35:17.249Z,18.70
2023-05-07T05:37:45.710Z,18.70
2023-05-07T05:40:13.626Z,18.60
2023-05-07T05:42:41.267Z,18.40
2023-05-07T05:45:10.842Z,18.00
2023-05-07T05:47:40.119Z,17.80
2023-05-07T05:50:08.664Z,17.60
2023-05-07T05:52:36.544Z,17.40
2023-05-07T05:55:04.473Z,17.30
2023-05-07T05:57:32.056Z,17.10
2023-05-07T05:59:59.617Z,17.00
2023-05-07T06:02:27.012Z,17.00
2023-05-07T06:04:54.691Z,17.00
2023-05-07T06:07:23.892Z,17.10
2023-05-07T06:09:51.567Z,17.20
2023-05-07T06:12:18.985Z,17.30
2023-05-07T06:14:48.736Z,17.40
2023-05-07T06:17:18.311Z,17.50
2023-05-07T06:19:48.433Z,17.60
2023-05-07T06:22:18.344Z,17.70
2023-05-07T06:24:45.783Z,17.90
2023-05-07T06:27:13.416Z,18.10
2023-05-07T06:29:41.611Z,18.40
2023-05-07T06:32:15.307Z,18.50
2023-05-07T06:34:44.774Z,18.50
2023-05-07T06:37:12.982Z,18.50
2023-05-07T06:39:59.919Z,18.60
2023-05-07T06:42:28.061Z,18.70
2023-05-07T06:44:59.966Z,18.70
2023-05-07T06:47:30.718Z,18.80
2023-05-07T06:49:58.069Z,19.10
2023-05-07T06:52:28.738Z,19.30
2023-05-07T06:54:56.877Z,19.30
2023-05-07T06:57:26.352Z,19.40
2023-05-07T06:59:53.861Z,19.40
2023-05-07T07:02:22.000Z,19.40
2023-05-07T07:04:50.783Z,19.30
2023-05-07T07:07:18.408Z,19.50
2023-05-07T07:09:47.689Z,19.70
2023-05-07T07:12:18.095Z,19.90
2023-05-07T07:14:45.718Z,19.90
2023-05-07T07:17:13.937Z,19.80
2023-05-07T07:19:41.370Z,19.80
2023-05-07T07:22:09.369Z,19.90
2023-05-07T07:24:36.677Z,19.90
2023-05-07T07:27:06.735Z,20.00
2023-05-07T07:29:35.720Z,20.10
2023-05-07T07:32:04.245Z,20.30
2023-05-07T07:34:32.714Z,20.40
2023-05-07T07:37:06.262Z,20.60
2023-05-07T07:39:34.572Z,20.70
2023-05-07T07:42:02.244Z,20.70
2023-05-07T07:44:31.077Z,20.60
2023-05-07T07:47:03.544Z,20.80
2023-05-07T07:49:31.350Z,21.00
2023-05-07T07:52:06.075Z,21.00
2023-05-07T07:54:36.372Z,20.70
2023-05-07T07:57:04.902Z,20.60
2023-05-07T07:59:34.067Z,20.50
2023-05-07T08:02:01.558Z,20.40
2023-05-07T08:04:31.633Z,20.50
2023-05-07T08:07:02.427Z,20.60
2023-05-07T08:09:31.913Z,20.60
2023-05-07T08:12:02.045Z,20.70
2023-05-07T08:14:31.222Z,20.80
2023-05-07T08:16:58.594Z,21.00
2023-05-07T08:19:26.227Z,21.10
2023-05-07T08:21:53.995Z,21.10
2023-05-07T08:24:23.296Z,21.10
2023-05-07T08:26:50.923Z,21.10
2023-05-07T08:29:18.633Z,21.40
2023-05-07T08:31:47.351Z,21.50
2023-05-07T08:34:14.759Z,21.40
2023-05-07T08:36:48.106Z,21.30
2023-05-07T08:39:17.916Z,21.50
2023-05-07T08:41:52.437Z,21.70
2023-05-07T08:44:23.516Z,21.70
2023-05-07T08:46:55.341Z,21.90
2023-05-07T08:49:23.881Z,22.10
2023-05-07T08:51:53.738Z,22.40
2023-05-07T08:54:22.727Z,22.40
2023-05-07T08:56:50.065Z,22.50
2023-05-07T08:59:18.653Z,22.40
2023-05-07T09:01:46.800Z,22.40
2023-05-07T09:04:15.068Z,22.40
2023-05-07T09:06:43.312Z,22.50
2023-05-07T09:09:18.564Z,22.70
2023-05-07T09:11:46.596Z,22.70
2023-05-07T09:14:16.222Z,22.90
2023-05-07T09:16:48.017Z,22.60
2023-05-07T09:19:16.315Z,22.40
2023-05-07T09:21:46.658Z,22.30
2023-05-07T09:24:17.548Z,22.10
2023-05-07T09:26:45.921Z,22.00
2023-05-07T09:29:18.156Z,22.10
2023-05-07T09:31:45.991Z,22.40
2023-05-07T09:34:17.258Z,22.60
2023-05-07T09:36:46.728Z,22.50
2023-05-07T09:39:14.658Z,22.10
2023-05-07T09:41:50.506Z,21.90
2023-05-07T09:44:25.794Z,21.80
2023-05-07T09:46:56.227Z,21.80
2023-05-07T09:49:37.315Z,21.70
2023-05-07T09:52:09.822Z,21.70
2023-05-07T09:54:44.171Z,21.80
2023-05-07T09:57:12.970Z,21.80
2023-05-07T09:59:44.210Z,21.90
2023-05-07T10:02:16.849Z,22.00
2023-05-07T10:04:50.269Z,21.90
2023-05-07T10:07:22.487Z,22.00
2023-05-07T10:09:53.444Z,22.20
2023-05-07T10:12:29.850Z,22.20
2023-05-07T10:14:57.636Z,22.30
2023-05-07T10:17:26.524Z,22.40
2023-05-07T10:19:54.937Z,22.50
2023-05-07T10:22:24.538Z,22.40
2023-05-07T10:24:55.449Z,22.10
2023-05-07T10:27:23.634Z,22.00
2023-05-07T10:30:22.793Z,22.00
2023-05-07T10:32:52.443Z,22.30
2023-05-07T10:35:33.001Z,22.30
2023-05-07T10:38:03.942Z,22.60
2023-05-07T10:40:33.988Z,22.80
2023-05-07T10:43:10.509Z,22.70
2023-05-07T10:46:19.275Z,22.50
2023-05-07T10:49:01.902Z,22.50
2023-05-07T10:51:36.908Z,22.60
2023-05-07T10:54:20.626Z,22.60
2023-05-07T10:56:56.650Z,22.50
2023-05-07T10:59:33.120Z,22.70
2023-05-07T11:02:10.721Z,22.90
2023-05-07T11:05:23.757Z,23.00
2023-05-07T11:08:04.630Z,22.60
2023-05-07T11:10:53.387Z,22.50
2023-05-07T11:13:46.266Z,22.60
2023-05-07T11:16:41.744Z,22.90
2023-05-07T11:19:52.314Z,22.70
2023-05-07T11:22:33.322Z,22.60
2023-05-07T11:25:10.434Z,22.60
2023-05-07T11:27:38.221Z,22.60
2023-05-07T11:30:05.979Z,22.60
2023-05-07T11:32:33.641Z,22.70
2023-05-07T11:35:02.250Z,22.60
2023-05-07T11:37:31.268Z,22.70
2023-05-07T11:40:08.149Z,22.80
2023-05-07T11:42:38.619Z,22.70
2023-05-07T11:45:09.668Z,22.80
2023-05-07T11:47:37.354Z,22.90
2023-05-07T11:50:07.447Z,22.60
2023-05-07T11:52:35.414Z,22.70
2023-05-07T11:55:04.723Z,22.80
2023-05-07T11:57:34.288Z,23.00
2023-05-07T12:00:06.324Z,23.20
2023-05-07T12:02:44.900Z,23.40
2023-05-07T12:05:13.631Z,23.60
2023-05-07T12:07:41.532Z,23.70
2023-05-07T12:10:09.362Z,23.90
2023-05-07T12:12:46.777Z,24.30
2023-05-07T12:15:23.457Z,24.20
2023-05-07T12:17:51.720Z,24.00
2023-05-07T12:20:19.635Z,24.20
2023-05-07T12:22:48.677Z,24.10
2023-05-07T12:25:20.992Z,24.10
2023-05-07T12:27:53.451Z,24.00
2023-05-07T12:30:20.787Z,23.90
2023-05-07T12:32:48.222Z,24.20
2023-05-07T12:35:15.833Z,24.30
2023-05-07T12:37:43.106Z,24.20
2023-05-07T12:40:12.238Z,24.00
2023-05-07T12:42:41.501Z,23.80
2023-05-07T12:45:10.974Z,23.70
2023-05-07T12:47:38.794Z,23.80
2023-05-07T12:50:07.774Z,23.90
2023-05-07T12:52:35.563Z,24.00
2023-05-07T12:55:07.721Z,24.00
2023-05-07T12:57:53.923Z,23.90
2023-05-07T13:00:38.497Z,23.70
2023-05-07T13:03:06.513Z,23.70
2023-05-07T13:05:33.997Z,23.80
2023-05-07T13:08:01.421Z,23.70
2023-05-07T13:10:29.592Z,23.90
2023-05-07T13:12:56.943Z,23.80
2023-05-07T13:15:24.311Z,23.70
2023-05-07T13:17:51.669Z,23.90
2023-05-07T13:20:19.070Z,24.10
2023-05-07T13:22:46.368Z,24.00
2023-05-07T13:25:14.138Z,24.00
2023-05-07T13:27:41.819Z,24.10
2023-05-07T13:30:09.372Z,24.20
2023-05-07T13:32:37.098Z,24.20
2023-05-07T13:35:04.925Z,24.20
2023-05-07T13:37:32.219Z,24.30
2023-05-07T13:39:59.572Z,24.20
2023-05-07T13:42:26.848Z,24.10
2023-05-07T13:44:54.141Z,24.30
2023-05-07T13:47:22.669Z,24.40
2023-05-07T13:49:51.525Z,24.50
2023-05-07T13:52:19.825Z,24.50
2023-05-07T13:54:47.227Z,24.50
2023-05-07T13:57:14.515Z,24.20
2023-05-07T13:59:42.276Z,24.10
2023-05-07T14:02:10.209Z,24.00
2023-05-07T14:04:38.875Z,23.90
2023-05-07T14:07:06.237Z,23.80
2023-05-07T14:09:33.742Z,23.70
2023-05-07T14:12:01.174Z,23.70
2023-05-07T14:14:28.572Z,23.90
2023-05-07T14:16:55.857Z,24.00
2023-05-07T14:19:23.784Z,24.20
2023-05-07T14:21:51.193Z,24.00
2023-05-07T14:24:27.428Z,23.90
2023-05-07T14:27:02.281Z,23.60
2023-05-07T14:29:29.918Z,23.50
2023-05-07T14:31:57.220Z,23.40
2023-05-07T14:34:24.502Z,23.40
2023-05-07T14:36:53.021Z,23.40
2023-05-07T14:39:20.426Z,23.30
2023-05-07T14:41:47.747Z,23.30
2023-05-07T14:44:15.510Z,23.30
2023-05-07T14:46:43.042Z,23.10
2023-05-07T14:49:17.989Z,22.90
2023-05-07T14:51:46.361Z,22.70
2023-05-07T14:54:14.720Z,22.50
2023-05-07T14:56:42.621Z,22.40
2023-05-07T14:59:10.393Z,22.30
2023-05-07T15:01:38.511Z,22.10
2023-05-07T15:04:06.257Z,22.20
2023-05-07T15:06:34.593Z,22.10
2023-05-07T15:09:01.923Z,22.20
2023-05-07T15:11:29.422Z,22.40
2023-05-07T15:13:56.991Z,22.40
2023-05-07T15:16:24.459Z,22.40
2023-05-07T15:18:52.040Z,22.60
2023-05-07T15:21:19.412Z,22.80
2023-05-07T15:23:46.870Z,22.80
2023-05-07T15:26:14.179Z,22.90
2023-05-07T15:28:42.262Z,22.80
2023-05-07T15:31:10.278Z,22.60
2023-05-07T15:33:37.608Z,22.60
2023-05-07T15:36:06.012Z,22.40
2023-05-07T15:38:33.253Z,22.10
2023-05-07T15:41:00.603Z,22.00
2023-05-07T15:43:27.880Z,21.90
2023-05-07T15:45:55.856Z,21.80
2023-05-07T15:48:23.152Z,21.70
2023-05-07T15:50:50.559Z,21.60
2023-05-07T15:53:17.843Z,21.50
2023-05-07T15:55:45.553Z,21.50
2023-05-07T15:58:14.176Z,21.50
2023-05-07T16:00:42.264Z,21.40
2023-05-07T16:03:09.764Z,21.30
2023-05-07T16:05:37.561Z,21.30
2023-05-07T16:08:05.591Z,21.20
2023-05-07T16:10:32.958Z,21.10
2023-05-07T16:13:00.279Z,21.00
2023-05-07T16:15:27.571Z,21.00
2023-05-07T16:17:58.284Z,20.90
2023-05-07T16:20:32.091Z,20.80
2023-05-07T16:22:59.712Z,20.90
2023-05-07T16:25:26.965Z,20.90
2023-05-07T16:27:55.025Z,20.90
2023-05-07T16:30:22.369Z,20.90
2023-05-07T16:32:49.840Z,20.70
2023-05-07T16:35:17.481Z,20.60
2023-05-07T16:37:44.901Z,20.40
2023-05-07T16:40:12.757Z,20.20
2023-05-07T16:42:40.056Z,20.20
2023-05-07T16:45:08.217Z,20.10
2023-05-07T16:47:35.581Z,20.00
2023-05-07T16:50:05.685Z,19.70
2023-05-07T16:52:33.735Z,19.50
2023-05-07T16:55:01.577Z,19.40
2023-05-07T16:57:32.721Z,19.10
2023-05-07T17:00:00.712Z,18.90
2023-05-07T17:02:28.300Z,18.70
2023-05-07T17:04:55.646Z,18.60
2023-05-07T17:07:23.024Z,18.40
2023-05-07T17:09:50.258Z,18.20
2023-05-07T17:12:17.687Z,18.00
2023-05-07T17:14:44.998Z,17.80
2023-05-07T17:17:12.349Z,17.70
2023-05-07T17:19:40.082Z,17.50
2023-05-07T17:22:07.510Z,17.40
2023-05-07T17:24:34.794Z,17.30
2023-05-07T17:27:02.282Z,17.20
2023-05-07T17:29:32.223Z,17.10
2023-05-07T17:32:00.146Z,17.00
2023-05-07T17:34:27.590Z,16.90
2023-05-07T17:36:56.109Z,16.80
2023-05-07T17:39:23.785Z,16.70
2023-05-07T17:41:51.300Z,16.60
2023-05-07T17:44:19.251Z,16.50
2023-05-07T17:46:46.577Z,16.30
2023-05-07T17:49:15.687Z,16.20
2023-05-07T17:51:53.997Z,16.10
2023-05-07T17:54:21.885Z,16.00
2023-05-07T17:56:49.272Z,15.90
2023-05-07T17:59:16.680Z,15.80
2023-05-07T18:01:44.409Z,15.70
2023-05-07T18:04:11.769Z,15.60
2023-05-07T18:06:39.732Z,15.40
2023-05-07T18:09:07.235Z,15.20
2023-05-07T18:11:34.750Z,15.10
2023-05-07T18:14:02.058Z,15.00
2023-05-07T18:16:29.572Z,14.90
2023-05-07T18:18:56.942Z,14.80
2023-05-07T18:21:24.232Z,14.60
2023-05-07T18:23:51.656Z,14.60
2023-05-07T18:26:18.985Z,14.50
2023-05-07T18:28:46.422Z,14.40
2023-05-07T18:31:13.856Z,14.30
2023-05-07T18:33:41.197Z,14.20
2023-05-07T18:36:08.668Z,14.00
2023-05-07T18:38:35.986Z,13.90
2023-05-07T18:41:04.482Z,13.80
2023-05-07T18:43:32.358Z,13.80
2023-05-07T18:45:59.889Z,13.70
2023-05-07T18:48:27.224Z,13.60
2023-05-07T18:50:54.632Z,13.60
2023-05-07T18:53:21.896Z,13.60
2023-05-07T18:55:50.877Z,13.50
2023-05-07T18:58:19.904Z,13.50
2023-05-07T19:00:48.432Z,13.40
2023-05-07T19:03:17.011Z,13.30
2023-05-07T19:05:45.307Z,13.20
2023-05-07T19:08:13.126Z,13.10
2023-05-07T19:10:40.403Z,13.00
2023-05-07T19:13:08.088Z,13.00
2023-05-07T19:15:35.731Z,12.90
2023-05-07T19:18:03.283Z,12.80
2023-05-07T19:20:30.936Z,12.70
2023-05-07T19:22:58.601Z,12.70
2023-05-07T19:25:25.959Z,12.60
2023-05-07T19:27:53.320Z,12.60
2023-05-07T19:30:20.811Z,12.50
2023-05-07T19:32:48.222Z,12.50
2023-05-07T19:35:15.844Z,12.50
2023-05-07T19:37:43.262Z,12.40
2023-05-07T19:40:11.307Z,12.40
2023-05-07T19:42:38.589Z,12.40
2023-05-07T19:45:06.432Z,12.30
2023-05-07T19:47:33.846Z,12.20
2023-05-07T19:50:01.568Z,12.10
2023-05-07T19:52:28.885Z,12.10
2023-05-07T19:54:56.636Z,12.00
2023-05-07T19:57:23.975Z,12.00
2023-05-07T19:59:51.267Z,12.00
2023-05-07T20:02:19.053Z,11.90
2023-05-07T20:04:46.496Z,11.90
2023-05-07T20:07:14.058Z,11.90
2023-05-07T20:09:41.496Z,11.80
2023-05-07T20:12:08.806Z,11.80
2023-05-07T20:14:36.373Z,11.80
2023-05-07T20:17:03.825Z,11.80
2023-05-07T20:19:31.294Z,11.80
2023-05-07T20:21:58.537Z,11.70
2023-05-07T20:24:26.119Z,11.70
2023-05-07T20:26:53.533Z,11.70
2023-05-07T20:29:23.343Z,11.60
2023-05-07T20:31:50.774Z,11.60
2023-05-07T20:34:18.143Z,11.60
2023-05-07T20:36:46.529Z,11.60
2023-05-07T20:39:15.999Z,11.60
2023-05-07T20:41:44.386Z,11.60
2023-05-07T20:44:12.048Z,11.60
2023-05-07T20:46:39.719Z,11.50
2023-05-07T20:49:07.039Z,11.50
2023-05-07T20:51:34.764Z,11.50
2023-05-07T20:54:02.155Z,11.40
2023-05-07T20:56:29.425Z,11.40
2023-05-07T20:58:57.161Z,11.40
2023-05-07T21:01:24.875Z,11.30
2023-05-07T21:03:54.040Z,11.30
2023-05-07T21:06:21.617Z,11.30
2023-05-07T21:08:48.916Z,11.20
2023-05-07T21:11:16.234Z,11.20
2023-05-07T21:13:43.674Z,11.10
2023-05-07T21:16:11.069Z,11.10
2023-05-07T21:18:38.376Z,11.10
2023-05-07T21:21:09.452Z,11.10
2023-05-07T21:23:37.166Z,11.00
2023-05-07T21:26:04.749Z,11.00
2023-05-07T21:28:32.490Z,11.00
2023-05-07T21:30:59.875Z,11.00
2023-05-07T21:33:27.262Z,11.00
2023-05-07T21:35:54.562Z,10.90
2023-05-07T21:38:22.048Z,10.90
2023-05-07T21:40:49.492Z,10.90
2023-05-07T21:43:16.866Z,10.90
2023-05-07T21:45:44.542Z,10.90
2023-05-07T21:48:13.494Z,10.90
2023-05-07T21:50:40.943Z,10.80
2023-05-07T21:53:08.669Z,10.80
2023-05-07T21:55:36.027Z,10.80
2023-05-07T21:58:06.068Z,10.80
2023-05-07T22:00:33.644Z,10.70
2023-05-07T22:03:01.282Z,10.70
2023-05-07T22:05:29.101Z,10.70
2023-05-07T22:07:56.412Z,10.70
2023-05-07T22:10:24.087Z,10.60
2023-05-07T22:12:51.620Z,10.60
2023-05-07T22:15:19.140Z,10.60
2023-05-07T22:17:46.515Z,10.60
2023-05-07T22:20:14.201Z,10.50
2023-05-07T22:22:51.858Z,10.50
2023-05-07T22:25:21.075Z,10.50
2023-05-07T22:27:48.906Z,10.50
2023-05-07T22:30:17.560Z,10.40
2023-05-07T22:32:45.743Z,10.40
2023-05-07T22:35:13.236Z,10.40
2023-05-07T22:37:40.662Z,10.40
2023-05-07T22:40:08.499Z,10.40
2023-05-07T22:42:35.779Z,10.30
2023-05-07T22:45:03.199Z,10.30
2023-05-07T22:47:31.262Z,10.40
2023-05-07T22:49:58.835Z,10.30
2023-05-07T22:52:26.640Z,10.30
2023-05-07T22:54:53.971Z,10.30
2023-05-07T22:57:21.320Z,10.30
2023-05-07T22:59:48.993Z,10.30
2023-05-07T23:02:16.384Z,10.30
2023-05-07T23:04:43.750Z,10.20
2023-05-07T23:07:11.512Z,10.20
2023-05-07T23:09:39.026Z,10.20
2023-05-07T23:12:06.590Z,10.20
2023-05-07T23:14:34.040Z,10.20
2023-05-07T23:17:01.449Z,10.20
2023-05-07T23:19:29.324Z,10.10
2023-05-07T23:21:57.230Z,10.10
2023-05-07T23:24:24.569Z,10.10
2023-05-07T23:26:51.892Z,10.10
2023-05-07T23:29:19.252Z,10.10
2023-05-07T23:31:46.591Z,10.10
2023-05-07T23:34:13.887Z,10.00
2023-05-07T23:36:41.522Z,10.00
2023-05-07T23:39:08.836Z,10.00
2023-05-07T23:41:36.490Z,9.90
2023-05-07T23:44:03.758Z,10.00
2023-05-07T23:46:31.250Z,10.00
2023-05-07T23:48:58.627Z,9.90
2023-05-07T23:51:26.312Z,9.90
2023-05-07T23:53:53.937Z,9.90
2023-05-07T23:56:21.275Z,9.80
2023-05-07T23:58:48.723Z,9.80
